Time;durP1;ratioP1;P1;durP2;ratioP2;P2;SDS_P1;SDS_P2;PMS_P1;PMS_P2;Temp;Humidity;BMP_temperature;BMP_pressure;BME280_temperature;BME280_humidity;BME280_pressure;Samples;Min_cycle;Max_cycle;Signal;HPM_P1;HPM_P2
2021/03/24 00:00:23;;;;;;;30.00;22.77;;;;;;;3.47;77.61;98877.00;5007064;28;20459;-70
2021/03/24 00:02:50;;;;;;;25.20;20.27;;;;;;;3.49;77.07;98875.13;5002627;28;21073;-70
2021/03/24 00:05:19;;;;;;;25.73;20.50;;;;;;;3.47;76.68;98884.84;5002620;28;20400;-70
2021/03/24 00:07:46;;;;;;;40.27;28.37;;;;;;;3.59;77.44;98875.34;5006884;28;20216;-68
2021/03/24 00:10:14;;;;;;;28.47;22.83;;;;;;;3.51;78.79;98877.63;5004173;28;20220;-70
2021/03/24 00:12:41;;;;;;;27.37;22.67;;;;;;;3.56;78.50;98878.16;5004426;28;20295;-70
2021/03/24 00:15:11;;;;;;;27.03;21.37;;;;;;;3.47;79.11;98882.25;5007924;28;20381;-69
2021/03/24 00:17:39;;;;;;;30.37;23.40;;;;;;;3.45;79.27;98887.56;5008113;28;20550;-70
2021/03/24 00:20:09;;;;;;;33.83;22.40;;;;;;;3.53;78.37;98886.22;5008536;28;20227;-70
2021/03/24 00:22:36;;;;;;;26.83;21.67;;;;;;;3.49;78.75;98888.22;5005765;28;20204;-70
2021/03/24 00:25:05;;;;;;;25.57;20.87;;;;;;;3.45;79.08;98884.13;5006369;28;20645;-69
2021/03/24 00:27:32;;;;;;;26.47;21.83;;;;;;;3.44;79.13;98892.91;5003938;28;20219;-68
2021/03/24 00:29:59;;;;;;;26.70;20.27;;;;;;;3.39;79.31;98887.94;5008895;28;20208;-70
2021/03/24 00:32:27;;;;;;;25.03;20.43;;;;;;;3.32;80.24;98886.66;5004026;28;20232;-70
2021/03/24 00:34:56;;;;;;;25.37;20.87;;;;;;;3.28;79.81;98885.16;5007207;28;20835;-67
2021/03/24 00:37:23;;;;;;;25.73;20.70;;;;;;;3.33;78.67;98885.72;5006273;28;20197;-69
2021/03/24 00:39:50;;;;;;;24.27;19.63;;;;;;;3.28;79.46;98882.56;5009533;28;20327;-70
2021/03/24 00:42:16;;;;;;;25.43;20.53;;;;;;;3.27;79.03;98878.25;5002646;28;20205;-70
2021/03/24 00:44:43;;;;;;;23.40;20.17;;;;;;;3.31;79.19;98874.50;5002953;28;20224;-70
2021/03/24 00:47:10;;;;;;;28.73;20.73;;;;;;;3.30;79.28;98878.06;5003653;28;21414;-70
2021/03/24 00:49:38;;;;;;;23.47;19.30;;;;;;;3.33;78.71;98872.63;5006139;28;20205;-68
2021/03/24 00:52:10;;;;;;;23.00;18.13;;;;;;;3.47;78.83;98871.75;5003653;28;20205;-70
2021/03/24 00:54:37;;;;;;;26.37;19.10;;;;;;;3.41;78.90;98878.22;5008412;28;20657;-71
2021/03/24 00:57:06;;;;;;;25.40;20.43;;;;;;;3.55;77.95;98873.88;5013907;28;20570;-69
2021/03/24 00:59:33;;;;;;;21.93;18.13;;;;;;;3.38;79.30;98873.16;5004580;28;20455;-70
2021/03/24 01:02:00;;;;;;;24.30;19.27;;;;;;;3.30;78.87;98875.44;5010093;28;20212;-70
2021/03/24 01:04:27;;;;;;;24.47;18.90;;;;;;;3.32;78.73;98871.75;5004279;28;20355;-68
2021/03/24 01:06:54;;;;;;;27.00;21.27;;;;;;;3.34;78.03;98876.94;5007077;28;20200;-69
2021/03/24 01:09:22;;;;;;;27.97;19.93;;;;;;;3.36;77.82;98866.31;5004655;28;20212;-70
2021/03/24 01:11:48;;;;;;;28.63;20.50;;;;;;;3.34;77.85;98861.19;5003029;28;20201;-70
2021/03/24 01:14:15;;;;;;;24.47;20.17;;;;;;;3.38;77.91;98865.31;5006670;28;20229;-71
2021/03/24 01:16:42;;;;;;;27.13;19.90;;;;;;;3.37;77.99;98866.25;5009814;28;20203;-68
2021/03/24 01:19:10;;;;;;;22.37;18.73;;;;;;;3.46;76.58;98865.66;5007493;28;20283;-69
2021/03/24 01:21:37;;;;;;;22.13;17.63;;;;;;;3.46;74.73;98863.03;5006177;28;20205;-70
2021/03/24 01:24:04;;;;;;;21.20;18.77;;;;;;;3.44;74.13;98867.53;5007218;28;20239;-70
2021/03/24 01:26:32;;;;;;;25.27;18.97;;;;;;;3.50;75.17;98868.94;5006534;28;20224;-69
2021/03/24 01:28:59;;;;;;;23.67;19.60;;;;;;;3.52;75.83;98871.44;5012221;28;20200;-68
2021/03/24 01:31:27;;;;;;;25.30;19.33;;;;;;;3.50;76.31;98862.84;5005125;28;20212;-68
2021/03/24 01:33:54;;;;;;;23.13;18.60;;;;;;;3.52;77.26;98866.19;5010851;28;20662;-70
2021/03/24 01:36:22;;;;;;;26.07;19.10;;;;;;;3.50;78.11;98866.31;5002807;28;20216;-70
2021/03/24 01:38:50;;;;;;;24.33;20.10;;;;;;;3.36;78.59;98869.81;5011221;28;20422;-70
2021/03/24 01:41:17;;;;;;;26.77;20.53;;;;;;;3.38;78.91;98862.69;5007465;28;20584;-70
2021/03/24 01:43:45;;;;;;;25.37;20.10;;;;;;;3.29;79.40;98871.13;5004701;28;20209;-70
2021/03/24 01:46:36;;;;;;;24.47;18.37;;;;;;;3.29;79.16;98869.34;5006002;28;20201;-70
2021/03/24 01:49:08;;;;;;;23.77;19.80;;;;;;;3.35;79.32;98867.28;5011365;28;20218;-69
2021/03/24 01:51:37;;;;;;;26.57;20.07;;;;;;;3.30;79.36;98857.91;5008794;28;20207;-70
2021/03/24 01:54:05;;;;;;;30.50;20.23;;;;;;;3.37;79.09;98863.63;5007000;28;20229;-69
2021/03/24 01:56:32;;;;;;;24.37;19.33;;;;;;;3.47;78.20;98862.09;5010933;28;20208;-70
2021/03/24 01:59:00;;;;;;;25.37;20.23;;;;;;;3.43;77.60;98855.38;5007983;28;20874;-70
2021/03/24 02:01:28;;;;;;;27.77;22.47;;;;;;;3.33;77.64;98855.09;5005712;28;20205;-69
2021/03/24 02:03:55;;;;;;;27.60;21.27;;;;;;;3.35;79.03;98854.16;5006438;28;20212;-69
2021/03/24 02:06:29;;;;;;;28.77;21.83;;;;;;;3.41;78.14;98859.00;5005887;28;20205;-70
2021/03/24 02:09:03;;;;;;;29.00;21.37;;;;;;;3.37;78.34;98850.53;5008016;28;20227;-68
2021/03/24 02:11:34;;;;;;;23.30;18.80;;;;;;;3.38;78.83;98844.34;5008847;28;20294;-69
2021/03/24 02:14:09;;;;;;;24.20;19.30;;;;;;;3.41;79.12;98853.78;5007605;28;20606;-68
2021/03/24 02:16:39;;;;;;;25.73;20.13;;;;;;;3.33;79.25;98857.72;5005497;28;20205;-71
2021/03/24 02:19:13;;;;;;;22.73;19.03;;;;;;;3.28;80.01;98858.97;5009903;28;20233;-70
2021/03/24 02:21:41;;;;;;;24.10;18.97;;;;;;;3.28;80.88;98851.94;5002585;28;20219;-70
2021/03/24 02:24:16;;;;;;;26.23;20.27;;;;;;;3.45;78.53;98844.81;5005731;28;20234;-70
2021/03/24 02:26:45;;;;;;;27.43;21.03;;;;;;;3.35;80.28;98848.94;5005004;28;20291;-70
2021/03/24 02:29:21;;;;;;;27.47;19.67;;;;;;;3.45;79.50;98847.44;5008864;28;20212;-70
2021/03/24 02:31:49;;;;;;;25.77;20.57;;;;;;;3.27;79.78;98850.25;5005604;28;20323;-70
2021/03/24 02:34:23;;;;;;;24.97;20.17;;;;;;;3.36;79.52;98848.84;5005409;28;20238;-70
2021/03/24 02:36:52;;;;;;;24.40;19.33;;;;;;;3.39;79.21;98839.94;5004922;28;20219;-70
2021/03/24 02:39:20;;;;;;;26.70;19.83;;;;;;;3.44;79.03;98838.72;5006085;28;20737;-70
2021/03/24 02:41:48;;;;;;;24.83;19.57;;;;;;;3.31;79.88;98836.03;5008360;28;20219;-69
2021/03/24 02:44:16;;;;;;;23.23;18.67;;;;;;;3.34;80.33;98840.25;5010844;28;20243;-69
2021/03/24 02:46:44;;;;;;;24.30;19.80;;;;;;;3.25;80.71;98840.81;5003428;28;20208;-70
2021/03/24 02:49:12;;;;;;;22.60;18.00;;;;;;;3.37;78.28;98832.19;4999572;28;20323;-70
2021/03/24 02:51:39;;;;;;;26.87;19.67;;;;;;;3.26;79.30;98834.66;5005293;28;20215;-70
2021/03/24 02:54:10;;;;;;;27.73;19.80;;;;;;;3.45;76.24;98832.53;5002918;28;20232;-68
2021/03/24 02:56:37;;;;;;;23.30;19.90;;;;;;;3.45;76.89;98832.53;5007033;28;20208;-69
2021/03/24 02:59:05;;;;;;;27.23;20.53;;;;;;;3.45;76.91;98832.53;5004313;28;20212;-70
2021/03/24 03:01:37;;;;;;;27.13;21.47;;;;;;;3.38;77.23;98833.00;5006116;28;20598;-69
2021/03/24 03:04:10;;;;;;;27.17;19.43;;;;;;;3.37;77.55;98832.19;5005002;28;20620;-70
2021/03/24 03:06:38;;;;;;;26.60;20.43;;;;;;;3.40;77.17;98834.59;5004393;28;20683;-69
2021/03/24 03:09:08;;;;;;;28.03;21.77;;;;;;;3.35;78.45;98828.81;5006222;28;20216;-68
2021/03/24 03:11:39;;;;;;;24.17;19.70;;;;;;;3.36;79.00;98833.13;5008118;28;20581;-70
2021/03/24 03:14:09;;;;;;;24.07;19.53;;;;;;;3.23;79.87;98834.84;5007780;28;20383;-70
2021/03/24 03:16:41;;;;;;;25.67;18.43;;;;;;;3.25;80.15;98836.41;5004753;28;20444;-69
2021/03/24 03:19:14;;;;;;;22.97;18.93;;;;;;;3.25;80.65;98839.03;5003106;28;20201;-68
2021/03/24 03:21:44;;;;;;;23.37;18.93;;;;;;;3.27;80.93;98839.78;5003748;28;20542;-70
2021/03/24 03:24:27;;;;;;;23.73;19.13;;;;;;;3.27;80.71;98841.56;5009026;28;20482;-70
2021/03/24 03:26:56;;;;;;;25.83;19.70;;;;;;;3.26;79.70;98835.47;5006353;28;20283;-68
2021/03/24 03:29:24;;;;;;;24.00;19.70;;;;;;;3.27;80.70;98839.78;5002793;28;20221;-69
2021/03/24 03:31:52;;;;;;;25.40;19.80;;;;;;;3.30;79.85;98842.19;5006337;28;20228;-70
2021/03/24 03:34:23;;;;;;;25.73;18.80;;;;;;;3.19;80.55;98840.25;5004855;28;20653;-68
2021/03/24 03:36:53;;;;;;;26.23;19.67;;;;;;;3.22;80.54;98848.84;5000724;28;20216;-69
2021/03/24 03:39:23;;;;;;;25.23;18.77;;;;;;;3.15;81.33;98851.03;5004539;28;20236;-68
2021/03/24 03:41:51;;;;;;;22.37;19.40;;;;;;;3.09;81.56;98841.78;5003983;28;20219;-70
2021/03/24 03:44:18;;;;;;;24.40;18.13;;;;;;;3.09;81.37;98839.16;5004078;28;20235;-67
2021/03/24 03:46:49;;;;;;;25.40;18.43;;;;;;;3.16;81.39;98842.25;5004221;28;20224;-66
2021/03/24 03:49:17;;;;;;;25.03;20.03;;;;;;;3.22;81.21;98841.84;5002847;28;20237;-65
2021/03/24 03:51:53;;;;;;;28.57;20.10;;;;;;;3.14;82.30;98829.22;5006312;28;20208;-63
2021/03/24 03:54:23;;;;;;;25.67;19.63;;;;;;;3.15;82.18;98837.94;5007607;28;20229;-69
2021/03/24 03:56:57;;;;;;;26.00;20.33;;;;;;;3.33;81.16;98841.19;5001471;28;20747;-70
2021/03/24 03:59:26;;;;;;;22.10;18.67;;;;;;;3.22;81.50;98843.63;5001307;28;20240;-69
2021/03/24 04:01:55;;;;;;;25.97;19.43;;;;;;;3.21;81.77;98840.16;5006137;28;20235;-70
2021/03/24 04:04:26;;;;;;;25.90;18.90;;;;;;;3.10;82.63;98837.38;5007169;28;20684;-68
2021/03/24 04:06:57;;;;;;;25.47;19.70;;;;;;;3.11;83.31;98841.69;5008493;28;20655;-69
2021/03/24 04:09:25;;;;;;;25.80;19.90;;;;;;;3.20;83.08;98843.72;5006228;28;20205;-68
2021/03/24 04:11:53;;;;;;;21.97;17.90;;;;;;;3.04;83.54;98838.59;5008966;28;20383;-69
2021/03/24 04:14:22;;;;;;;27.20;19.97;;;;;;;3.12;82.94;98846.81;5010153;28;22293;-69
2021/03/24 04:16:50;;;;;;;23.77;19.10;;;;;;;3.12;83.23;98843.38;5006244;28;20298;-69
2021/03/24 04:19:19;;;;;;;21.90;18.27;;;;;;;3.00;84.24;98851.03;5009050;28;20205;-69
2021/03/24 04:21:49;;;;;;;22.83;19.07;;;;;;;3.18;83.29;98849.03;5016071;28;20212;-69
2021/03/24 04:24:21;;;;;;;24.87;19.53;;;;;;;2.99;85.01;98851.97;5009428;28;20642;-70
2021/03/24 04:26:50;;;;;;;23.13;18.50;;;;;;;3.06;84.34;98860.28;5002206;28;20205;-68
2021/03/24 04:29:21;;;;;;;24.13;20.07;;;;;;;3.32;82.52;98857.84;5009437;28;20213;-70
2021/03/24 04:31:51;;;;;;;24.17;18.07;;;;;;;3.26;82.51;98855.59;5008532;28;20216;-69
2021/03/24 04:34:18;;;;;;;21.77;17.90;;;;;;;3.11;83.19;98855.59;5008076;28;20735;-67
2021/03/24 04:36:49;;;;;;;24.17;19.07;;;;;;;3.23;82.95;98848.78;5006477;28;20289;-69
2021/03/24 04:39:22;;;;;;;25.97;19.93;;;;;;;3.21;82.40;98849.78;5009128;28;20425;-69
2021/03/24 04:41:50;;;;;;;24.90;19.13;;;;;;;3.07;84.04;98853.28;5011970;28;20212;-70
2021/03/24 04:44:21;;;;;;;29.30;20.20;;;;;;;2.94;84.99;98858.44;5013010;28;20243;-70
2021/03/24 04:46:52;;;;;;;22.57;17.73;;;;;;;2.95;85.32;98863.56;5005828;28;20573;-70
2021/03/24 04:49:21;;;;;;;23.80;18.70;;;;;;;3.07;85.73;98871.63;5009054;28;20209;-70
2021/03/24 04:51:51;;;;;;;21.43;18.67;;;;;;;2.96;85.69;98867.88;5006420;28;20217;-70
2021/03/24 04:54:22;;;;;;;22.43;17.90;;;;;;;2.93;85.75;98868.06;5004756;28;20323;-68
2021/03/24 04:56:51;;;;;;;22.40;17.87;;;;;;;2.89;86.00;98871.81;5002531;28;20208;-71
2021/03/24 04:59:22;;;;;;;21.20;17.83;;;;;;;2.94;85.09;98869.75;5003797;28;20212;-68
2021/03/24 05:01:51;;;;;;;23.77;18.90;;;;;;;2.81;86.34;98874.88;5006081;28;20592;-70
2021/03/24 05:04:27;;;;;;;23.57;19.00;;;;;;;2.93;85.69;98867.25;5007505;28;20229;-68
2021/03/24 05:07:01;;;;;;;26.97;19.73;;;;;;;2.86;86.49;98870.22;5004860;28;20625;-71
2021/03/24 05:09:27;;;;;;;26.00;19.40;;;;;;;3.10;85.46;98877.50;5011956;28;20201;-70
2021/03/24 05:12:03;;;;;;;22.13;17.50;;;;;;;2.91;85.47;98877.78;5002704;28;20213;-69
2021/03/24 05:14:34;;;;;;;23.40;18.83;;;;;;;2.76;86.97;98876.94;5012153;28;20231;-69
2021/03/24 05:17:12;;;;;;;25.07;19.60;;;;;;;2.86;86.37;98888.56;5007847;28;20240;-69
2021/03/24 05:19:39;;;;;;;25.80;18.03;;;;;;;2.73;87.06;98883.22;5004844;28;20224;-70
2021/03/24 05:22:11;;;;;;;28.47;21.07;;;;;;;2.64;88.20;98873.28;5006313;28;20239;-69
2021/03/24 05:24:40;;;;;;;25.47;19.53;;;;;;;2.71;87.63;98877.22;5009285;28;20224;-70
2021/03/24 05:27:13;;;;;;;27.63;19.93;;;;;;;2.81;87.37;98884.53;5003070;28;20389;-67
2021/03/24 05:29:45;;;;;;;22.87;19.23;;;;;;;2.97;86.27;98893.13;5005198;28;20212;-69
2021/03/24 05:32:18;;;;;;;23.30;18.43;;;;;;;2.95;87.30;98891.53;5002586;28;20205;-68
2021/03/24 05:34:45;;;;;;;24.90;19.80;;;;;;;2.99;86.61;98896.47;5009193;28;20237;-68
2021/03/24 05:37:13;;;;;;;23.93;19.73;;;;;;;2.79;88.02;98892.47;5007013;28;20578;-68
2021/03/24 05:39:48;;;;;;;24.63;19.67;;;;;;;2.83;87.43;98891.34;5008575;28;20264;-68
2021/03/24 05:42:33;;;;;;;24.53;18.47;;;;;;;2.89;90.11;98900.59;5012265;28;20208;-68
2021/03/24 05:45:08;;;;;;;27.83;20.03;;;;;;;3.14;91.22;98892.09;5008991;28;20545;-67
2021/03/24 05:47:53;;;;;;;26.33;19.27;;;;;;;3.00;88.53;98900.78;5005174;28;20722;-71
2021/03/24 05:50:34;;;;;;;26.13;19.67;;;;;;;2.94;88.85;98898.53;5004271;28;20220;-71
2021/03/24 05:53:12;;;;;;;25.30;19.53;;;;;;;2.98;88.56;98896.59;5007611;28;20223;-68
2021/03/24 05:55:46;;;;;;;27.00;20.60;;;;;;;3.18;87.28;98895.38;5004757;28;20654;-67
2021/03/24 05:58:36;;;;;;;28.73;20.73;;;;;;;3.04;87.04;98898.84;5004033;28;20229;-70
2021/03/24 06:01:06;;;;;;;28.13;19.70;;;;;;;3.01;89.00;98894.63;5006782;28;20676;-69
2021/03/24 06:03:50;;;;;;;27.53;19.33;;;;;;;3.39;90.82;98895.81;5005563;28;20216;-69
2021/03/24 06:07:05;;;;;;;29.00;20.83;;;;;;;3.21;88.21;98892.56;5004557;28;20219;-71
2021/03/24 06:09:52;;;;;;;23.87;19.63;;;;;;;3.13;88.35;98900.06;5011793;28;20426;-69
2021/03/24 06:12:37;;;;;;;26.53;19.77;;;;;;;3.22;85.73;98901.25;5003762;28;20204;-69
2021/03/24 06:15:25;;;;;;;24.50;19.33;;;;;;;3.35;84.93;98901.34;5005791;28;20232;-72
2021/03/24 06:18:05;;;;;;;25.57;20.70;;;;;;;3.22;85.79;98903.88;5006212;28;20569;-70
2021/03/24 06:20:39;;;;;;;26.33;20.63;;;;;;;3.13;85.85;98900.88;5009301;28;20744;-72
2021/03/24 06:23:36;;;;;;;28.87;19.53;;;;;;;3.07;86.58;98901.25;5008719;28;20235;-69
2021/03/24 06:26:31;;;;;;;28.67;20.03;;;;;;;3.06;86.52;98904.00;4974805;28;20912;-71
2021/03/24 06:29:02;;;;;;;28.23;19.67;;;;;;;2.91;88.10;98901.34;5005144;28;20287;-71
2021/03/24 06:32:02;;;;;;;25.10;19.37;;;;;;;3.02;87.25;98893.69;5006367;28;20675;-71
2021/03/24 06:34:44;;;;;;;30.20;20.13;;;;;;;3.07;86.48;98898.66;5005961;28;20283;-71
2021/03/24 06:37:32;;;;;;;27.03;19.67;;;;;;;3.02;86.48;98900.72;5004714;28;20673;-71
2021/03/24 06:40:21;;;;;;;29.07;20.33;;;;;;;3.10;85.93;98889.78;5005708;28;20231;-71
2021/03/24 06:42:59;;;;;;;26.57;19.83;;;;;;;3.14;86.28;98899.13;5004309;28;20411;-69
2021/03/24 06:45:56;;;;;;;26.73;20.40;;;;;;;3.15;86.53;98896.38;5003130;28;20239;-70
2021/03/24 06:48:40;;;;;;;26.50;20.03;;;;;;;3.25;85.57;98893.22;4985672;28;20212;-70
2021/03/24 06:51:42;;;;;;;27.07;20.07;;;;;;;3.23;84.73;98889.88;5007687;28;20216;-72
2021/03/24 06:54:53;;;;;;;25.73;19.33;;;;;;;3.38;84.07;98888.03;5011770;28;20228;-70
2021/03/24 06:57:55;;;;;;;27.03;19.53;;;;;;;3.41;85.05;98893.94;5004021;28;20205;-71
2021/03/24 07:00:35;;;;;;;25.67;20.03;;;;;;;3.59;83.04;98883.22;5006882;28;20228;-71
2021/03/24 07:03:35;;;;;;;25.23;19.97;;;;;;;3.68;81.11;98889.66;5008501;28;20206;-71
2021/03/24 07:06:12;;;;;;;24.93;20.97;;;;;;;3.54;81.64;98893.16;4993346;28;20313;-70
2021/03/24 07:08:50;;;;;;;29.73;20.30;;;;;;;3.74;80.92;98887.50;5005546;28;20220;-72
2021/03/24 07:11:27;;;;;;;27.20;20.23;;;;;;;3.83;80.77;98886.06;4999193;28;20203;-71
2021/03/24 07:14:16;;;;;;;28.10;20.77;;;;;;;3.93;78.30;98886.28;5007847;28;20216;-72
2021/03/24 07:16:53;;;;;;;26.77;20.50;;;;;;;3.91;78.29;98888.19;5002436;28;20344;-69
2021/03/24 07:19:31;;;;;;;27.20;20.13;;;;;;;3.81;79.30;98894.97;4999417;28;20701;-70
2021/03/24 07:22:19;;;;;;;27.63;20.07;;;;;;;3.93;78.18;98896.78;5004571;28;20225;-70
2021/03/24 07:25:04;;;;;;;29.40;21.20;;;;;;;4.31;76.69;98895.22;5005292;28;20312;-72
2021/03/24 07:27:47;;;;;;;28.47;19.63;;;;;;;4.34;76.82;98887.97;5010277;28;20220;-71
2021/03/24 07:30:22;;;;;;;25.83;20.10;;;;;;;4.56;75.65;98891.78;5001115;28;20209;-72
2021/03/24 07:32:54;;;;;;;26.47;19.07;;;;;;;4.75;73.90;98885.31;5004686;28;20205;-71
2021/03/24 07:35:36;;;;;;;25.83;19.93;;;;;;;4.89;73.59;98898.31;5004383;28;20462;-72
2021/03/24 07:38:38;;;;;;;23.20;19.40;;;;;;;5.02;72.55;98902.72;4998036;28;20282;-70
2021/03/24 07:41:40;;;;;;;27.60;20.90;;;;;;;4.96;70.58;98898.75;5001666;28;20228;-69
2021/03/24 07:44:18;;;;;;;27.40;21.67;;;;;;;5.00;70.49;98897.59;5002481;28;20235;-70
2021/03/24 07:47:03;;;;;;;24.57;19.63;;;;;;;5.33;70.35;98906.69;5008055;28;20201;-70
2021/03/24 07:49:51;;;;;;;25.53;20.43;;;;;;;5.35;70.19;98907.44;5004871;28;20271;-70
2021/03/24 07:52:40;;;;;;;24.33;19.77;;;;;;;5.47;69.12;98907.50;5006317;28;20219;-70
2021/03/24 07:55:14;;;;;;;23.30;19.47;;;;;;;5.65;67.74;98903.53;5002419;28;20248;-70
2021/03/24 07:58:02;;;;;;;25.27;19.17;;;;;;;5.83;66.80;98905.81;5007251;28;20498;-71
2021/03/24 08:00:35;;;;;;;21.00;18.60;;;;;;;6.03;64.96;98904.38;5011508;28;20773;-70
2021/03/24 08:03:06;;;;;;;21.13;18.80;;;;;;;6.26;62.94;98908.91;5007777;28;20667;-70
2021/03/24 08:05:49;;;;;;;24.43;18.70;;;;;;;6.32;63.53;98906.66;5003708;28;20316;-73
2021/03/24 08:08:20;;;;;;;20.57;18.07;;;;;;;6.23;63.24;98908.19;5003552;28;20213;-70
2021/03/24 08:10:53;;;;;;;22.53;18.67;;;;;;;6.36;62.96;98896.72;5005505;28;20201;-70
2021/03/24 08:13:34;;;;;;;22.93;18.33;;;;;;;6.35;61.76;98903.81;5003074;28;20212;-71
2021/03/24 08:16:20;;;;;;;24.13;19.67;;;;;;;6.44;61.85;98902.28;5011629;28;20327;-70
2021/03/24 08:18:59;;;;;;;20.87;17.00;;;;;;;6.58;60.54;98905.66;5003297;28;20260;-70
2021/03/24 08:21:35;;;;;;;21.00;17.30;;;;;;;6.70;60.50;98902.06;5003015;28;20217;-72
2021/03/24 08:24:18;;;;;;;19.57;16.57;;;;;;;6.89;59.77;98900.69;5004168;28;20254;-69
2021/03/24 08:26:48;;;;;;;20.47;17.63;;;;;;;6.68;60.40;98896.09;5007115;28;20572;-71
2021/03/24 08:29:24;;;;;;;21.63;17.43;;;;;;;6.79;60.05;98884.75;5007374;28;20205;-72
2021/03/24 08:32:31;;;;;;;20.77;17.53;;;;;;;6.65;59.83;98889.28;5005970;28;20259;-70
2021/03/24 08:35:40;;;;;;;21.43;17.17;;;;;;;6.64;60.12;98882.34;5006577;28;20233;-69
2021/03/24 08:38:21;;;;;;;19.63;17.13;;;;;;;6.90;59.19;98886.56;4984707;28;20678;-70
2021/03/24 08:41:12;;;;;;;19.53;16.77;;;;;;;6.96;59.03;98886.06;5002064;28;20224;-73
2021/03/24 08:43:46;;;;;;;22.57;17.60;;;;;;;6.98;58.80;98885.94;5004462;28;20213;-69
2021/03/24 08:46:19;;;;;;;20.60;16.90;;;;;;;7.03;58.97;98883.81;5001604;28;20748;-67
2021/03/24 08:48:50;;;;;;;18.50;16.10;;;;;;;6.96;57.83;98880.81;5002244;28;20201;-69
2021/03/24 08:51:28;;;;;;;22.27;17.27;;;;;;;7.22;56.69;98883.22;5004124;28;20501;-71
2021/03/24 08:54:11;;;;;;;20.57;16.93;;;;;;;6.98;57.08;98889.44;5007739;28;20204;-68
2021/03/24 08:56:45;;;;;;;21.37;16.40;;;;;;;7.29;58.38;98873.00;5007893;28;20208;-69
2021/03/24 08:59:19;;;;;;;21.47;16.83;;;;;;;7.34;58.98;98881.38;4999901;28;20232;-70
2021/03/24 09:01:58;;;;;;;18.83;16.73;;;;;;;7.36;58.19;98882.09;5001491;28;20303;-70
2021/03/24 09:04:58;;;;;;;18.80;16.70;;;;;;;7.42;56.13;98875.50;5009206;28;20304;-72
2021/03/24 09:07:34;;;;;;;18.70;15.90;;;;;;;7.50;56.56;98878.38;5002697;28;20231;-68
2021/03/24 09:10:13;;;;;;;19.80;16.57;;;;;;;7.56;57.21;98872.59;5010398;28;20295;-70
2021/03/24 09:12:46;;;;;;;18.90;15.97;;;;;;;7.98;54.09;98879.81;5004878;28;20744;-70
2021/03/24 09:15:17;;;;;;;18.70;16.57;;;;;;;7.92;54.48;98883.78;5006263;28;20607;-69
2021/03/24 09:17:51;;;;;;;19.10;16.13;;;;;;;7.90;54.94;98880.41;5007259;28;20661;-71
2021/03/24 09:20:30;;;;;;;20.17;15.37;;;;;;;7.88;54.82;98881.53;5009105;28;20604;-70
2021/03/24 09:23:09;;;;;;;20.63;16.43;;;;;;;8.17;54.13;98871.22;5003100;28;20232;-71
2021/03/24 09:25:46;;;;;;;19.30;15.80;;;;;;;8.43;53.80;98877.91;5005148;28;20293;-72
2021/03/24 09:28:41;;;;;;;20.43;16.87;;;;;;;8.42;53.37;98870.97;5003302;28;20204;-72
2021/03/24 09:31:29;;;;;;;20.87;16.30;;;;;;;8.52;52.52;98863.97;4998067;28;20666;-71
2021/03/24 09:33:57;;;;;;;20.43;17.10;;;;;;;8.19;53.08;98871.91;5009646;28;20219;-73
2021/03/24 09:36:41;;;;;;;20.63;16.53;;;;;;;8.31;53.27;98863.94;5005102;28;20312;-72
2021/03/24 09:39:17;;;;;;;18.43;16.03;;;;;;;8.38;52.56;98862.47;5006283;28;20213;-73
2021/03/24 09:41:49;;;;;;;22.17;15.97;;;;;;;8.17;54.22;98860.66;5000509;28;20319;-69
2021/03/24 09:44:23;;;;;;;18.83;15.93;;;;;;;8.24;54.00;98853.88;5006292;28;20235;-70
2021/03/24 09:46:52;;;;;;;20.50;17.00;;;;;;;8.46;53.95;98843.31;5006174;28;20471;-70
2021/03/24 09:49:24;;;;;;;20.67;16.77;;;;;;;8.48;53.07;98851.94;5007903;28;20731;-71
2021/03/24 09:52:08;;;;;;;19.10;15.30;;;;;;;8.43;54.01;98847.06;5006607;28;20411;-72
2021/03/24 09:54:36;;;;;;;18.83;16.13;;;;;;;8.73;52.10;98849.91;5002604;28;20604;-71
2021/03/24 09:57:07;;;;;;;19.13;16.03;;;;;;;8.89;52.67;98844.16;5006646;28;20302;-71
2021/03/24 09:59:39;;;;;;;19.87;16.43;;;;;;;8.86;52.55;98845.25;4999196;28;20261;-68
2021/03/24 10:02:15;;;;;;;18.93;15.80;;;;;;;8.67;52.22;98841.53;5004144;28;20605;-73
2021/03/24 10:04:49;;;;;;;19.20;15.20;;;;;;;8.77;53.89;98838.09;5007053;28;20220;-71
2021/03/24 10:07:19;;;;;;;16.23;14.53;;;;;;;8.92;52.33;98839.44;5008865;28;20204;-71
2021/03/24 10:09:54;;;;;;;17.40;15.17;;;;;;;9.07;51.43;98839.06;5009667;28;20209;-72
2021/03/24 10:12:31;;;;;;;17.93;15.77;;;;;;;9.18;51.13;98836.31;5007896;28;20608;-73
2021/03/24 10:15:07;;;;;;;20.13;15.20;;;;;;;9.25;51.39;98826.88;5002818;28;20729;-71
2021/03/24 10:17:36;;;;;;;18.33;16.00;;;;;;;9.37;49.07;98824.13;5005628;28;20213;-70
2021/03/24 10:20:10;;;;;;;17.47;15.30;;;;;;;9.27;51.03;98826.75;5005582;28;20217;-71
2021/03/24 10:22:42;;;;;;;16.97;15.17;;;;;;;9.42;50.05;98827.22;5001468;28;20204;-73
2021/03/24 10:25:11;;;;;;;16.83;14.00;;;;;;;9.45;49.16;98824.28;5006062;28;20236;-72
2021/03/24 10:27:43;;;;;;;16.27;14.67;;;;;;;9.36;51.13;98818.00;4999751;28;20220;-70
2021/03/24 10:30:26;;;;;;;19.83;14.80;;;;;;;9.82;49.47;98818.34;5001795;28;20224;-72
2021/03/24 10:33:03;;;;;;;19.57;15.47;;;;;;;9.29;49.62;98822.16;5006238;28;20873;-69
2021/03/24 10:35:34;;;;;;;18.07;15.60;;;;;;;9.27;51.56;98817.00;5001897;28;20325;-74
2021/03/24 10:38:11;;;;;;;18.87;16.20;;;;;;;10.18;48.40;98807.16;5005123;28;20807;-69
2021/03/24 10:40:40;;;;;;;19.23;15.97;;;;;;;9.80;49.08;98807.06;5001532;28;20224;-75
2021/03/24 10:43:12;;;;;;;16.33;14.13;;;;;;;9.47;48.14;98808.25;5001385;28;21006;-72
2021/03/24 10:45:44;;;;;;;16.97;15.27;;;;;;;9.47;48.51;98808.25;5008199;28;20225;-72
2021/03/24 10:48:16;;;;;;;16.93;14.53;;;;;;;9.60;50.16;98819.44;5007483;28;20204;-71
2021/03/24 10:50:49;;;;;;;17.20;15.07;;;;;;;10.16;48.13;98806.47;5004595;28;20204;-73
2021/03/24 10:53:22;;;;;;;16.93;14.73;;;;;;;9.99;47.82;98795.63;5005869;28;20219;-72
2021/03/24 10:56:01;;;;;;;17.73;14.90;;;;;;;10.36;47.47;98788.72;5001301;28;20598;-72
2021/03/24 10:58:37;;;;;;;18.90;14.63;;;;;;;10.46;47.67;98790.56;5007629;28;20209;-71
2021/03/24 11:01:10;;;;;;;16.50;14.80;;;;;;;10.75;46.19;98793.13;5001080;28;20251;-73
2021/03/24 11:03:49;;;;;;;17.00;15.20;;;;;;;10.70;45.85;98790.06;5007190;28;20201;-71
2021/03/24 11:06:19;;;;;;;19.03;17.03;;;;;;;10.74;46.30;98788.78;5003631;28;20208;-72
2021/03/24 11:08:57;;;;;;;17.50;15.20;;;;;;;10.54;46.53;98790.69;5006673;28;20209;-69
2021/03/24 11:11:26;;;;;;;17.00;15.30;;;;;;;10.20;47.36;98776.06;5001542;28;20224;-72
2021/03/24 11:13:57;;;;;;;19.17;16.50;;;;;;;10.71;46.96;98787.25;5003034;28;20211;-73
2021/03/24 11:16:27;;;;;;;17.10;14.73;;;;;;;10.76;45.42;98785.97;5011835;28;20216;-72
2021/03/24 11:19:06;;;;;;;16.93;14.70;;;;;;;11.36;45.90;98777.56;5006716;28;20236;-72
2021/03/24 11:21:41;;;;;;;16.83;15.03;;;;;;;11.99;45.79;98769.69;5003367;28;20255;-70
2021/03/24 11:24:21;;;;;;;18.10;16.20;;;;;;;11.63;44.62;98767.88;5005521;28;20246;-72
2021/03/24 11:27:05;;;;;;;19.80;15.60;;;;;;;11.35;45.53;98767.13;5005529;28;20673;-72
2021/03/24 11:29:37;;;;;;;17.13;15.33;;;;;;;11.44;44.80;98766.22;5008235;28;20223;-69
2021/03/24 11:32:07;;;;;;;16.67;14.67;;;;;;;11.57;45.50;98757.88;5004608;28;20201;-71
2021/03/24 11:34:40;;;;;;;17.33;15.43;;;;;;;11.61;45.36;98747.81;5008605;28;20798;-73
2021/03/24 11:37:45;;;;;;;18.30;16.30;;;;;;;11.39;44.94;98750.75;5002476;28;20205;-72
2021/03/24 11:40:28;;;;;;;16.57;14.87;;;;;;;11.22;45.09;98743.59;5005444;28;20243;-72
2021/03/24 11:42:58;;;;;;;18.30;15.47;;;;;;;10.86;45.94;98744.38;5009000;28;20205;-70
2021/03/24 11:45:26;;;;;;;17.17;15.03;;;;;;;10.94;45.26;98739.16;5004266;28;20236;-71
2021/03/24 11:48:17;;;;;;;15.43;13.83;;;;;;;11.29;44.26;98740.22;5009904;28;20580;-73
2021/03/24 11:50:59;;;;;;;16.20;14.30;;;;;;;11.48;42.64;98733.06;5004764;28;20914;-71
2021/03/24 11:53:35;;;;;;;17.43;14.13;;;;;;;12.04;42.79;98732.06;5004816;28;20205;-72
2021/03/24 11:56:16;;;;;;;15.07;13.47;;;;;;;12.31;42.46;98731.06;5008572;28;20582;-69
2021/03/24 11:59:03;;;;;;;15.97;14.13;;;;;;;12.79;40.81;98726.16;5003962;28;20192;-73